Time;durP1;ratioP1;P1;durP2;ratioP2;P2;SDS_P1;SDS_P2;PMS_P1;PMS_P2;Temp;Humidity;BMP_temperature;BMP_pressure;BME280_temperature;BME280_humidity;BME280_pressure;Samples;Min_cycle;Max_cycle;Signal;HPM_P1;HPM_P2
2022/12/31 00:00:50;;;;;;;0.70;0.60;;;16.60;99.90;;;;;;5031423;28;20501;-74
2022/12/31 00:03:16;;;;;;;0.60;0.50;;;16.60;99.90;;;;;;5030993;28;20410;-73
2022/12/31 00:05:41;;;;;;;1.10;0.50;;;16.50;99.90;;;;;;5033573;28;20421;-73
2022/12/31 00:08:07;;;;;;;0.70;0.50;;;16.60;99.90;;;;;;5033093;28;20453;-73
2022/12/31 00:10:39;;;;;;;1.17;0.60;;;16.60;99.90;;;;;;5034147;28;20585;-73
2022/12/31 00:13:06;;;;;;;1.02;0.50;;;16.60;99.90;;;;;;5032809;28;20429;-74
2022/12/31 00:15:31;;;;;;;1.10;0.40;;;16.70;1.00;;;;;;5034228;28;20406;-74
2022/12/31 00:17:57;;;;;;;1.58;0.60;;;16.70;1.00;;;;;;5034157;28;20378;-74
2022/12/31 00:20:22;;;;;;;1.40;0.50;;;16.80;1.00;;;;;;5034138;28;20411;-73
2022/12/31 00:22:48;;;;;;;0.60;0.50;;;16.60;1.00;;;;;;5033060;28;20426;-74
2022/12/31 00:25:13;;;;;;;0.85;0.45;;;16.70;1.00;;;;;;5033369;28;20405;-74
2022/12/31 00:27:39;;;;;;;0.57;0.50;;;16.70;1.00;;;;;;5026653;28;20403;-74
2022/12/31 00:30:05;;;;;;;0.60;0.50;;;16.70;1.00;;;;;;5014259;28;20385;-73
2022/12/31 00:32:30;;;;;;;0.70;0.50;;;16.80;99.90;;;;;;5013448;28;20387;-74
2022/12/31 00:34:56;;;;;;;0.50;0.43;;;16.70;1.00;;;;;;5013936;28;20393;-73
2022/12/31 00:37:21;;;;;;;1.20;0.50;;;16.80;99.90;;;;;;5014111;28;20417;-74
2022/12/31 00:39:47;;;;;;;0.77;0.40;;;16.80;99.90;;;;;;5017146;28;20410;-73
2022/12/31 00:42:12;;;;;;;0.70;0.50;;;16.80;99.90;;;;;;5033530;28;20394;-73
2022/12/31 00:44:38;;;;;;;0.70;0.50;;;16.80;99.90;;;;;;5033146;28;20880;-73
2022/12/31 00:47:03;;;;;;;0.50;0.40;;;16.80;99.90;;;;;;5022609;28;20475;-73
2022/12/31 00:49:29;;;;;;;0.50;0.50;;;16.80;99.90;;;;;;5012694;28;20385;-74
2022/12/31 00:51:54;;;;;;;0.80;0.50;;;16.80;99.90;;;;;;5013663;28;20863;-74
2022/12/31 00:54:20;;;;;;;0.80;0.50;;;16.80;99.90;;;;;;5013061;28;20389;-73
2022/12/31 00:56:45;;;;;;;1.53;0.77;;;16.80;99.90;;;;;;5013833;28;21008;-74
2022/12/31 00:59:10;;;;;;;0.80;0.50;;;16.80;99.90;;;;;;5022436;28;20406;-73
2022/12/31 01:01:38;;;;;;;0.70;0.50;;;16.80;99.90;;;;;;5052899;22;20422;-76
2022/12/31 01:04:06;;;;;;;0.80;0.50;;;16.90;99.90;;;;;;4992987;28;20441;-76
2022/12/31 01:06:32;;;;;;;0.60;0.40;;;17.00;1.00;;;;;;4992866;28;20379;-76
2022/12/31 01:08:57;;;;;;;0.80;0.50;;;17.00;1.00;;;;;;4993719;28;20395;-76
2022/12/31 01:11:27;;;;;;;0.77;0.50;;;17.00;23.60;;;;;;4983331;28;20404;-76
2022/12/31 01:13:57;;;;;;;0.60;0.40;;;17.00;99.90;;;;;;4973486;28;20396;-76
2022/12/31 01:16:29;;;;;;;1.30;0.50;;;17.00;99.90;;;;;;4974320;28;20911;-76
2022/12/31 01:18:57;;;;;;;1.33;0.50;;;16.90;99.90;;;;;;4973626;28;20410;-77
2022/12/31 01:21:23;;;;;;;0.63;0.47;;;16.80;1.00;;;;;;4978907;28;20418;-77
2022/12/31 01:23:49;;;;;;;1.40;0.50;;;16.80;1.00;;;;;;4992630;28;20447;-77
2022/12/31 01:26:16;;;;;;;0.82;0.60;;;16.80;1.00;;;;;;4976288;28;20387;-76
2022/12/31 01:28:42;;;;;;;0.80;0.50;;;16.80;1.00;;;;;;4994468;28;20390;-78
2022/12/31 01:31:11;;;;;;;1.20;0.70;;;16.80;1.00;;;;;;4980545;28;20386;-77
2022/12/31 01:33:37;;;;;;;1.20;0.40;;;16.80;1.00;;;;;;4995809;28;20575;-77
2022/12/31 01:36:09;;;;;;;1.20;0.50;;;16.80;1.00;;;;;;4995436;28;20398;-77
2022/12/31 01:38:35;;;;;;;0.60;0.40;;;16.80;1.00;;;;;;4995372;28;20494;-77
2022/12/31 01:41:02;;;;;;;2.05;0.50;;;16.90;1.00;;;;;;4995758;28;20944;-77
2022/12/31 01:43:53;;;;;;;0.80;0.50;;;16.90;1.00;;;;;;4995684;28;20390;-77
2022/12/31 01:46:24;;;;;;;0.85;0.43;;;16.80;99.90;;;;;;4996244;28;20401;-77
2022/12/31 01:48:53;;;;;;;0.60;0.40;;;16.80;99.90;;;;;;4995358;28;20409;-77
2022/12/31 01:51:19;;;;;;;0.75;0.40;;;16.80;99.90;;;;;;4993968;28;20441;-77
2022/12/31 01:53:45;;;;;;;0.90;0.50;;;16.70;1.00;;;;;;4994490;28;20410;-77
2022/12/31 01:56:11;;;;;;;0.70;0.40;;;16.70;99.90;;;;;;4996125;28;20398;-77
2022/12/31 01:58:46;;;;;;;1.60;0.60;;;16.60;1.00;;;;;;4996808;28;20449;-77
2022/12/31 02:01:17;;;;;;;0.50;0.40;;;16.60;1.00;;;;;;4994360;28;20406;-77
2022/12/31 02:03:43;;;;;;;0.60;0.50;;;16.50;99.90;;;;;;4992867;28;20394;-77
2022/12/31 02:06:27;;;;;;;1.60;0.57;;;16.50;1.00;;;;;;4976472;28;20395;-77
2022/12/31 02:08:52;;;;;;;0.60;0.50;;;16.40;99.90;;;;;;4985514;28;20491;-77
2022/12/31 02:11:31;;;;;;;0.70;0.40;;;16.30;1.00;;;;;;4986705;28;20437;-77
2022/12/31 02:14:01;;;;;;;0.50;0.50;;;16.30;1.00;;;;;;4977184;28;20469;-77
2022/12/31 02:16:49;;;;;;;0.60;0.50;;;16.30;1.00;;;;;;4977006;28;20419;-77
2022/12/31 02:20:08;;;;;;;0.80;0.50;;;16.20;99.90;;;;;;4994062;28;20525;-77
2022/12/31 02:22:36;;;;;;;0.60;0.50;;;16.10;99.90;;;;;;4993012;28;20413;-78
2022/12/31 02:25:08;;;;;;;0.90;0.50;;;16.10;99.90;;;;;;4993289;28;20892;-77
2022/12/31 02:27:51;;;;;;;0.70;0.50;;;16.00;99.90;;;;;;4994288;28;20850;-78
2022/12/31 02:30:20;;;;;;;0.73;0.57;;;16.10;99.90;;;;;;4976864;28;20406;-77
2022/12/31 02:33:14;;;;;;;0.70;0.50;;;16.10;99.90;;;;;;4978025;28;20402;-77
2022/12/31 02:35:42;;;;;;;1.30;0.80;;;16.00;1.00;;;;;;4996233;28;20394;-77
2022/12/31 02:38:21;;;;;;;0.70;0.50;;;15.90;1.00;;;;;;4995377;28;20394;-77
2022/12/31 02:40:47;;;;;;;0.70;0.55;;;15.90;1.00;;;;;;4977828;28;20411;-77
2022/12/31 02:43:13;;;;;;;0.60;0.50;;;15.90;1.00;;;;;;4993563;28;20450;-77
2022/12/31 02:45:46;;;;;;;0.60;0.47;;;15.90;1.00;;;;;;4994450;28;20394;-77
2022/12/31 02:48:36;;;;;;;0.60;0.50;;;15.80;1.00;;;;;;4995386;28;20460;-77
2022/12/31 02:51:16;;;;;;;0.80;0.60;;;15.80;1.00;;;;;;4995232;28;20406;-77
2022/12/31 02:54:10;;;;;;;0.60;0.50;;;15.70;1.00;;;;;;4994099;28;20757;-77
2022/12/31 02:57:08;;;;;;;0.90;0.52;;;15.80;1.00;;;;;;4978163;28;20404;-77
2022/12/31 03:02:34;;;;;;;1.73;0.50;;;15.80;1.00;;;;;;4992611;28;20456;-77
2022/12/31 03:05:01;;;;;;;1.00;0.40;;;15.80;1.00;;;;;;4992850;28;20410;-77
2022/12/31 03:07:30;;;;;;;1.50;0.50;;;15.80;1.00;;;;;;4994849;28;20801;-77
2022/12/31 03:09:56;;;;;;;1.40;0.60;;;15.80;1.00;;;;;;4959055;28;20539;-77
2022/12/31 03:15:19;;;;;;;0.52;0.50;;;15.70;1.00;;;;;;4977093;28;20894;-77
2022/12/31 03:18:10;;;;;;;1.10;0.50;;;15.80;1.00;;;;;;4977316;28;20978;-77
2022/12/31 03:23:35;;;;;;;0.80;0.60;;;15.70;1.00;;;;;;4994194;28;20884;-77
2022/12/31 03:26:02;;;;;;;0.90;0.40;;;15.70;1.00;;;;;;4977582;28;20444;-77
2022/12/31 03:28:29;;;;;;;0.60;0.50;;;15.80;99.90;;;;;;4975995;28;20406;-77
2022/12/31 03:31:00;;;;;;;0.50;0.40;;;15.90;99.90;;;;;;4994941;28;20478;-77
2022/12/31 03:33:30;;;;;;;1.20;0.50;;;15.90;99.90;;;;;;4994393;28;20877;-77
2022/12/31 03:35:56;;;;;;;1.75;0.50;;;15.80;99.90;;;;;;4994797;28;20418;-77
2022/12/31 03:38:22;;;;;;;0.50;0.40;;;15.70;99.90;;;;;;4995407;28;20389;-77
2022/12/31 03:40:51;;;;;;;0.60;0.50;;;15.80;99.90;;;;;;4994993;28;20923;-77
2022/12/31 03:43:18;;;;;;;0.60;0.50;;;15.80;99.90;;;;;;4977258;28;20395;-77
2022/12/31 03:45:47;;;;;;;0.60;0.50;;;15.80;99.90;;;;;;4995102;28;20880;-77
2022/12/31 03:48:12;;;;;;;0.50;0.40;;;16.00;23.30;;;;;;4994340;28;20813;-77
2022/12/31 03:50:38;;;;;;;0.55;0.45;;;16.20;99.90;;;;;;4992774;28;20395;-77
2022/12/31 03:53:04;;;;;;;0.90;0.50;;;16.30;1.00;;;;;;4993776;28;20449;-77
2022/12/31 03:55:29;;;;;;;0.70;0.40;;;16.50;1.00;;;;;;4977992;28;20417;-77
2022/12/31 03:57:55;;;;;;;0.60;0.40;;;16.40;1.00;;;;;;4995010;28;20413;-77
2022/12/31 04:00:21;;;;;;;0.55;0.40;;;16.40;1.00;;;;;;4993966;28;20414;-77
2022/12/31 04:02:48;;;;;;;0.50;0.40;;;16.70;99.90;;;;;;4993170;28;20486;-77
2022/12/31 04:05:15;;;;;;;0.50;0.40;;;16.70;1.00;;;;;;4995162;28;20399;-78
2022/12/31 04:07:41;;;;;;;0.55;0.40;;;16.80;1.00;;;;;;4994936;28;20745;-77
2022/12/31 04:10:08;;;;;;;0.70;0.40;;;16.70;99.90;;;;;;4995017;28;20775;-77
2022/12/31 04:12:34;;;;;;;0.63;0.40;;;16.60;1.00;;;;;;4995733;28;20468;-77
2022/12/31 04:15:00;;;;;;;0.60;0.40;;;16.70;1.00;;;;;;4982164;28;20406;-77
2022/12/31 04:17:25;;;;;;;1.40;0.50;;;16.80;99.90;;;;;;5000549;28;20841;-77
2022/12/31 04:19:51;;;;;;;0.70;0.50;;;16.70;99.90;;;;;;4999005;28;20505;-77
2022/12/31 04:22:16;;;;;;;1.10;0.50;;;16.90;1.00;;;;;;4998555;28;20472;-77
2022/12/31 04:24:42;;;;;;;1.40;0.40;;;16.90;99.90;;;;;;4980473;28;20426;-77
2022/12/31 04:27:09;;;;;;;1.40;0.40;;;16.80;1.00;;;;;;4979069;28;20893;-77
2022/12/31 04:29:35;;;;;;;0.50;0.50;;;16.90;99.90;;;;;;4996258;28;20394;-78
2022/12/31 04:32:02;;;;;;;1.10;0.40;;;16.80;99.90;;;;;;4995865;28;20402;-77
2022/12/31 04:34:28;;;;;;;0.70;0.40;;;17.00;99.90;;;;;;4994995;28;20394;-77
2022/12/31 04:36:53;;;;;;;0.50;0.43;;;17.00;99.90;;;;;;4994362;28;20441;-77
2022/12/31 04:39:19;;;;;;;0.60;0.40;;;17.00;99.90;;;;;;4994685;28;20955;-77
2022/12/31 04:41:44;;;;;;;0.50;0.32;;;17.00;99.90;;;;;;4995806;28;20409;-77
2022/12/31 04:44:10;;;;;;;0.60;0.60;;;17.00;99.90;;;;;;4998609;28;20405;-77
2022/12/31 04:46:35;;;;;;;1.10;0.40;;;16.90;1.00;;;;;;4981365;28;20389;-77
2022/12/31 04:49:01;;;;;;;1.50;0.50;;;16.80;1.00;;;;;;4996897;28;20406;-76
2022/12/31 04:51:29;;;;;;;0.50;0.40;;;17.00;1.00;;;;;;4997686;28;20397;-78
2022/12/31 04:53:55;;;;;;;0.67;0.47;;;16.80;99.90;;;;;;4978211;28;20916;-76
2022/12/31 04:56:21;;;;;;;2.00;0.60;;;16.70;1.00;;;;;;4994208;28;20406;-77
2022/12/31 04:58:46;;;;;;;0.70;0.40;;;16.60;30.20;;;;;;4994210;28;20413;-76
2022/12/31 05:01:12;;;;;;;0.57;0.50;;;16.60;99.90;;;;;;4993558;28;20414;-76
2022/12/31 05:03:38;;;;;;;0.60;0.50;;;16.70;1.00;;;;;;4992921;28;20453;-76
2022/12/31 05:06:07;;;;;;;0.80;0.65;;;16.50;1.00;;;;;;4976442;28;20897;-76
2022/12/31 05:08:33;;;;;;;0.70;0.50;;;16.40;1.00;;;;;;4970442;28;20400;-76
2022/12/31 05:10:59;;;;;;;1.10;0.77;;;16.30;93.00;;;;;;4974900;28;20406;-77
2022/12/31 05:13:24;;;;;;;2.22;0.80;;;16.40;1.00;;;;;;4973861;28;20392;-77
2022/12/31 05:15:50;;;;;;;0.60;0.50;;;16.20;1.00;;;;;;4974448;28;20894;-77
2022/12/31 05:18:16;;;;;;;0.93;0.60;;;16.50;1.00;;;;;;4993241;28;20885;-76
2022/12/31 05:20:42;;;;;;;1.00;0.50;;;16.40;1.00;;;;;;4993679;28;20417;-76
2022/12/31 05:23:08;;;;;;;0.73;0.40;;;16.40;99.90;;;;;;4992725;28;20445;-77
2022/12/31 05:25:33;;;;;;;0.70;0.50;;;16.60;1.00;;;;;;4993769;28;20393;-77
2022/12/31 05:27:59;;;;;;;1.10;0.40;;;16.60;1.00;;;;;;4993655;28;20393;-77
2022/12/31 05:30:24;;;;;;;1.00;0.50;;;16.50;1.00;;;;;;4993305;28;20862;-77
2022/12/31 05:32:50;;;;;;;1.10;0.47;;;16.40;99.90;;;;;;4992663;28;20416;-77
2022/12/31 05:35:16;;;;;;;0.57;0.50;;;16.40;1.00;;;;;;4992557;28;20490;-77
2022/12/31 05:37:42;;;;;;;2.80;0.60;;;16.60;99.90;;;;;;4993361;28;20422;-77
2022/12/31 05:40:09;;;;;;;0.70;0.50;;;16.50;99.90;;;;;;4993400;28;20849;-77
2022/12/31 05:42:34;;;;;;;1.10;0.80;;;16.60;1.00;;;;;;4992546;28;20386;-77
2022/12/31 05:44:59;;;;;;;0.75;0.45;;;16.70;1.00;;;;;;4975792;28;20402;-77
2022/12/31 05:47:25;;;;;;;0.90;0.50;;;16.60;1.00;;;;;;4992835;28;20399;-77
2022/12/31 05:49:51;;;;;;;1.50;0.50;;;16.70;99.90;;;;;;4993036;28;20406;-77
2022/12/31 05:52:16;;;;;;;1.33;0.60;;;16.90;5.10;;;;;;4992684;28;20429;-77
2022/12/31 05:54:42;;;;;;;0.70;0.53;;;16.80;1.00;;;;;;4992504;28;20391;-77
2022/12/31 05:57:07;;;;;;;1.10;0.40;;;16.80;95.00;;;;;;4993081;28;20453;-77
2022/12/31 05:59:33;;;;;;;0.60;0.50;;;16.90;1.00;;;;;;4992908;28;20473;-77
2022/12/31 06:01:59;;;;;;;1.90;0.50;;;16.90;1.00;;;;;;4991363;28;20764;-77
2022/12/31 06:04:25;;;;;;;0.60;0.40;;;16.90;1.00;;;;;;4991974;28;20446;-77
2022/12/31 06:06:50;;;;;;;0.70;0.60;;;17.00;1.00;;;;;;4975499;28;20453;-77
2022/12/31 06:09:17;;;;;;;0.80;0.60;;;17.10;99.90;;;;;;4992921;28;20951;-77
2022/12/31 06:11:42;;;;;;;0.60;0.40;;;16.80;1.00;;;;;;4992802;28;20460;-77
2022/12/31 06:14:08;;;;;;;0.70;0.50;;;16.90;1.00;;;;;;4992006;28;20489;-77
2022/12/31 06:16:34;;;;;;;0.60;0.50;;;16.60;99.90;;;;;;4992376;28;20402;-77
2022/12/31 06:19:00;;;;;;;0.60;0.50;;;16.50;99.90;;;;;;4992727;28;20394;-77
2022/12/31 06:21:26;;;;;;;1.80;0.50;;;16.40;1.00;;;;;;4991563;28;20433;-77
2022/12/31 06:23:51;;;;;;;0.60;0.50;;;16.40;1.00;;;;;;4991601;28;20454;-77
2022/12/31 06:26:17;;;;;;;0.70;0.50;;;16.40;1.00;;;;;;4972734;28;20407;-77
2022/12/31 06:28:42;;;;;;;0.90;0.50;;;16.40;1.00;;;;;;4992216;28;20394;-77
2022/12/31 06:31:11;;;;;;;0.90;0.50;;;16.40;1.00;;;;;;4978198;28;20774;-77
2022/12/31 06:33:37;;;;;;;2.10;0.40;;;16.40;1.00;;;;;;4990745;28;20923;-77
2022/12/31 06:36:04;;;;;;;1.30;0.40;;;16.50;99.90;;;;;;4974768;28;20402;-77
2022/12/31 06:38:32;;;;;;;0.60;0.53;;;16.80;1.00;;;;;;4992275;28;20757;-77
2022/12/31 06:41:05;;;;;;;1.10;0.50;;;16.90;99.90;;;;;;4992130;28;20406;-77
2022/12/31 06:43:30;;;;;;;0.70;0.50;;;17.00;99.90;;;;;;4973549;28;20433;-77
2022/12/31 06:46:06;;;;;;;0.80;0.50;;;17.00;99.90;;;;;;4992055;28;20900;-77
2022/12/31 06:48:32;;;;;;;0.40;0.32;;;16.90;99.90;;;;;;4992089;28;20501;-77
2022/12/31 06:51:10;;;;;;;0.90;0.63;;;17.00;99.90;;;;;;4974726;28;20879;-77
2022/12/31 06:53:36;;;;;;;0.88;0.50;;;17.30;1.00;;;;;;4991158;28;20401;-77
2022/12/31 06:56:12;;;;;;;1.40;0.60;;;17.20;1.00;;;;;;4991885;28;20394;-77
2022/12/31 06:58:38;;;;;;;0.93;0.50;;;17.30;1.00;;;;;;4991767;28;20403;-76
2022/12/31 07:01:26;;;;;;;1.30;0.40;;;17.40;1.00;;;;;;4974236;28;20403;-77
2022/12/31 07:04:03;;;;;;;0.50;0.30;;;17.20;1.00;;;;;;4972723;28;20406;-77
2022/12/31 07:06:52;;;;;;;0.50;0.40;;;17.30;1.00;;;;;;4991472;28;20410;-77
2022/12/31 07:09:31;;;;;;;1.00;0.47;;;17.50;1.00;;;;;;4979341;28;20388;-77
2022/12/31 07:12:18;;;;;;;0.60;0.40;;;17.30;1.00;;;;;;4955565;28;20392;-77
2022/12/31 07:14:59;;;;;;;0.70;0.43;;;17.40;1.00;;;;;;4954206;28;20786;-76
2022/12/31 07:17:53;;;;;;;0.70;0.30;;;17.50;1.00;;;;;;4969744;28;20496;-76
2022/12/31 07:20:19;;;;;;;0.70;0.50;;;17.40;1.00;;;;;;4991532;28;20410;-76
2022/12/31 07:22:45;;;;;;;0.80;0.50;;;17.50;99.90;;;;;;4990718;28;20394;-76
2022/12/31 07:25:18;;;;;;;0.88;0.40;;;17.50;99.90;;;;;;4990847;28;20458;-77
2022/12/31 07:28:36;;;;;;;0.60;0.40;;;17.50;99.90;;;;;;4991354;28;20410;-76
2022/12/31 07:31:45;;;;;;;0.80;0.40;;;17.50;99.90;;;;;;4991442;28;20797;-76
2022/12/31 07:34:24;;;;;;;1.40;0.50;;;17.50;99.90;;;;;;4991012;28;20464;-76
2022/12/31 07:37:04;;;;;;;0.50;0.40;;;17.50;99.90;;;;;;4991364;28;20426;-76
2022/12/31 07:39:51;;;;;;;0.50;0.40;;;17.70;99.90;;;;;;4991507;28;20870;-76
2022/12/31 07:42:30;;;;;;;0.60;0.40;;;17.60;99.90;;;;;;4991392;28;20382;-76
2022/12/31 07:45:25;;;;;;;0.80;0.40;;;17.80;99.90;;;;;;4990915;28;20394;-76
2022/12/31 07:47:51;;;;;;;0.90;0.50;;;17.70;99.90;;;;;;4973407;28;20493;-76
2022/12/31 07:50:18;;;;;;;0.70;0.30;;;17.70;99.90;;;;;;4973614;28;20433;-77
2022/12/31 07:52:45;;;;;;;1.30;0.38;;;17.60;99.90;;;;;;4972911;28;20904;-77
2022/12/31 07:55:10;;;;;;;0.50;0.40;;;17.70;99.90;;;;;;4991085;28;20490;-76
2022/12/31 07:57:51;;;;;;;0.90;0.50;;;17.70;99.90;;;;;;4990787;28;20846;-76
2022/12/31 08:00:17;;;;;;;0.70;0.30;;;17.70;99.90;;;;;;4990969;28;20413;-76
2022/12/31 08:03:32;;;;;;;0.50;0.40;;;17.80;99.90;;;;;;4988685;28;20405;-76
2022/12/31 08:06:14;;;;;;;0.60;0.40;;;17.80;99.90;;;;;;4915503;28;20456;-76
2022/12/31 08:08:45;;;;;;;0.77;0.50;;;18.10;99.90;;;;;;4983616;28;20400;-76
2022/12/31 08:11:24;;;;;;;1.30;0.40;;;18.00;99.90;;;;;;4986566;28;20417;-76
2022/12/31 08:13:53;;;;;;;0.50;0.40;;;18.10;99.90;;;;;;4990379;28;20398;-76
2022/12/31 08:16:18;;;;;;;0.88;0.60;;;18.10;99.90;;;;;;4993767;28;20398;-77
2022/12/31 08:18:44;;;;;;;1.50;0.50;;;18.20;92.50;;;;;;4994454;28;20585;-77
2022/12/31 08:21:19;;;;;;;0.70;0.40;;;18.30;57.00;;;;;;4975975;28;20754;-76
2022/12/31 08:24:03;;;;;;;0.50;0.40;;;18.30;49.00;;;;;;4988798;28;20489;-76
2022/12/31 08:26:47;;;;;;;0.90;0.40;;;18.20;99.90;;;;;;4991366;28;20743;-76
2022/12/31 08:29:37;;;;;;;0.90;0.50;;;18.50;8.20;;;;;;4992216;28;20394;-74
2022/12/31 08:32:19;;;;;;;0.73;0.60;;;18.50;1.00;;;;;;4994604;28;20800;-75
2022/12/31 08:35:03;;;;;;;0.77;0.40;;;18.50;1.00;;;;;;4993791;28;20437;-74
2022/12/31 08:37:42;;;;;;;0.80;0.60;;;18.50;1.00;;;;;;4984682;28;20394;-76
2022/12/31 08:40:44;;;;;;;1.05;0.50;;;18.60;1.00;;;;;;4976907;28;20904;-76
2022/12/31 08:43:24;;;;;;;0.80;0.50;;;18.60;1.00;;;;;;4993561;28;20390;-76
2022/12/31 08:45:55;;;;;;;0.80;0.50;;;18.60;1.00;;;;;;4976867;28;20950;-76
2022/12/31 08:48:35;;;;;;;0.60;0.40;;;18.50;1.00;;;;;;4977330;28;20776;-76
2022/12/31 08:51:00;;;;;;;0.60;0.50;;;18.60;1.00;;;;;;4994558;28;20497;-76
2022/12/31 08:53:26;;;;;;;0.60;0.40;;;18.70;1.00;;;;;;4993787;28;20477;-76
2022/12/31 08:56:02;;;;;;;0.60;0.40;;;18.60;1.00;;;;;;4994960;28;20741;-77
2022/12/31 08:58:48;;;;;;;0.80;0.50;;;18.50;1.00;;;;;;4992685;28;20481;-76
2022/12/31 09:01:20;;;;;;;1.00;0.57;;;18.60;1.00;;;;;;4977192;28;20401;-75
2022/12/31 09:04:24;;;;;;;0.80;0.43;;;18.60;1.00;;;;;;4975827;28;20929;-76
2022/12/31 09:07:02;;;;;;;0.50;0.30;;;18.60;1.00;;;;;;4989083;28;20461;-76
2022/12/31 09:09:59;;;;;;;1.50;0.40;;;18.70;1.00;;;;;;4993452;28;20402;-75
2022/12/31 09:13:06;;;;;;;0.60;0.40;;;18.70;1.00;;;;;;4993376;28;20397;-75
2022/12/31 09:15:45;;;;;;;0.68;0.40;;;18.80;1.00;;;;;;4960613;28;20405;-76
2022/12/31 09:18:12;;;;;;;0.60;0.50;;;18.70;1.00;;;;;;4994129;28;20903;-76
2022/12/31 09:20:38;;;;;;;0.60;0.40;;;18.80;1.00;;;;;;4993637;28;20409;-76
2022/12/31 09:23:04;;;;;;;1.70;0.40;;;18.90;1.00;;;;;;4992814;28;20406;-76
2022/12/31 09:25:30;;;;;;;0.60;0.47;;;18.90;1.00;;;;;;4979373;28;20392;-76
2022/12/31 09:28:38;;;;;;;0.70;0.40;;;18.80;1.00;;;;;;4956284;28;20392;-75
2022/12/31 09:31:27;;;;;;;0.52;0.40;;;18.90;1.00;;;;;;4946468;28;20494;-76
2022/12/31 09:34:06;;;;;;;0.50;0.30;;;19.00;1.00;;;;;;4964079;28;20460;-76
2022/12/31 09:36:45;;;;;;;1.10;0.40;;;19.20;1.00;;;;;;4975955;28;20444;-76
2022/12/31 09:39:37;;;;;;;0.90;0.50;;;19.20;1.00;;;;;;4975871;28;20485;-76
2022/12/31 09:42:02;;;;;;;1.35;0.40;;;19.20;1.00;;;;;;4988895;28;20765;-76
2022/12/31 09:44:59;;;;;;;0.50;0.40;;;19.30;1.00;;;;;;4992944;28;20410;-76
2022/12/31 09:48:03;;;;;;;1.90;0.50;;;19.30;1.00;;;;;;4992796;28;20401;-76
2022/12/31 09:51:00;;;;;;;0.50;0.40;;;19.30;1.00;;;;;;4964549;28;20470;-75
2022/12/31 09:53:34;;;;;;;0.50;0.30;;;19.40;1.00;;;;;;4972963;28;20866;-76
2022/12/31 09:56:11;;;;;;;1.90;0.40;;;19.50;1.00;;;;;;4956600;28;20407;-76
2022/12/31 09:58:42;;;;;;;1.13;0.50;;;19.50;1.00;;;;;;4976911;28;20505;-77
2022/12/31 10:01:44;;;;;;;0.80;0.40;;;19.50;1.00;;;;;;4992348;28;20422;-77
2022/12/31 10:04:27;;;;;;;1.35;0.60;;;19.50;1.00;;;;;;4990417;28;20544;-77
2022/12/31 10:07:13;;;;;;;0.52;0.35;;;19.50;1.00;;;;;;4993285;28;20448;-76
2022/12/31 10:10:06;;;;;;;1.10;0.40;;;19.50;1.00;;;;;;4975407;28;21008;-76
2022/12/31 10:13:02;;;;;;;0.80;0.50;;;19.50;1.00;;;;;;4992334;28;20382;-77
2022/12/31 10:15:53;;;;;;;0.90;0.30;;;19.50;1.00;;;;;;4992751;28;20410;-77
2022/12/31 10:18:33;;;;;;;0.70;0.30;;;19.60;1.00;;;;;;4992827;28;20374;-76
2022/12/31 10:21:20;;;;;;;0.50;0.32;;;19.60;1.00;;;;;;4992795;28;20390;-77
2022/12/31 10:23:45;;;;;;;0.70;0.40;;;19.70;1.00;;;;;;4974218;28;20406;-77
2022/12/31 10:26:42;;;;;;;0.60;0.40;;;19.80;1.00;;;;;;4992786;28;20769;-77
2022/12/31 10:29:41;;;;;;;0.90;0.40;;;19.90;1.00;;;;;;4992485;28;20398;-77
2022/12/31 10:32:15;;;;;;;0.75;0.40;;;19.90;99.90;;;;;;4992339;28;20845;-77
2022/12/31 10:34:55;;;;;;;0.60;0.40;;;19.90;99.90;;;;;;4991523;28;20394;-77
2022/12/31 10:37:22;;;;;;;0.50;0.30;;;19.80;99.90;;;;;;4974998;28;20391;-77
2022/12/31 10:40:26;;;;;;;0.50;0.35;;;19.90;99.90;;;;;;4973954;28;20486;-77
2022/12/31 10:43:07;;;;;;;0.88;0.50;;;20.00;99.90;;;;;;4991284;28;20394;-77
2022/12/31 10:45:43;;;;;;;0.75;0.40;;;20.00;99.90;;;;;;4991249;28;20754;-77
2022/12/31 10:48:47;;;;;;;0.70;0.40;;;20.00;99.90;;;;;;4984306;28;20375;-77
2022/12/31 10:51:46;;;;;;;0.50;0.40;;;20.10;99.90;;;;;;4986996;28;20447;-77
2022/12/31 10:54:36;;;;;;;0.80;0.30;;;20.10;99.90;;;;;;4966963;28;20395;-78
2022/12/31 10:57:42;;;;;;;1.35;0.40;;;20.10;99.90;;;;;;4992973;28;20943;-77
2022/12/31 11:00:13;;;;;;;0.90;0.40;;;20.20;99.90;;;;;;4966555;28;20487;-77
2022/12/31 11:03:12;;;;;;;0.60;0.40;;;20.10;99.90;;;;;;4988440;28;20407;-77
2022/12/31 11:05:48;;;;;;;0.80;0.40;;;20.20;99.90;;;;;;4995121;28;20395;-77
2022/12/31 11:08:45;;;;;;;1.00;0.40;;;20.20;99.90;;;;;;4994660;28;20409;-77
2022/12/31 11:11:28;;;;;;;0.40;0.30;;;20.20;99.90;;;;;;4994388;28;20413;-77
2022/12/31 11:14:15;;;;;;;0.63;0.40;;;20.30;99.90;;;;;;4976011;28;20390;-74
2022/12/31 11:16:46;;;;;;;0.80;0.40;;;20.30;99.90;;;;;;4991579;28;21079;-75
2022/12/31 11:19:30;;;;;;;0.60;0.47;;;20.50;99.90;;;;;;4991178;28;20399;-73
2022/12/31 11:22:19;;;;;;;0.60;0.40;;;20.70;99.90;;;;;;4991475;28;20399;-73
2022/12/31 11:25:10;;;;;;;0.50;0.30;;;20.90;99.90;;;;;;4990553;28;20429;-73
2022/12/31 11:27:44;;;;;;;0.50;0.40;;;21.10;99.90;;;;;;4973912;28;20853;-73
2022/12/31 11:30:47;;;;;;;0.70;0.40;;;21.30;99.90;;;;;;4973621;28;20417;-73
2022/12/31 11:33:24;;;;;;;0.50;0.40;;;21.80;99.90;;;;;;4989943;28;20390;-72
2022/12/31 11:36:25;;;;;;;0.75;0.30;;;21.70;99.90;;;;;;4991194;28;20801;-73
2022/12/31 11:38:59;;;;;;;1.15;0.50;;;21.70;99.90;;;;;;4991337;28;20387;-72
2022/12/31 11:41:45;;;;;;;0.90;0.40;;;21.50;99.90;;;;;;4991043;28;20849;-73
2022/12/31 11:44:19;;;;;;;0.60;0.40;;;21.30;99.90;;;;;;4990483;28;20382;-73
2022/12/31 11:46:48;;;;;;;0.50;0.30;;;21.50;99.90;;;;;;4987241;28;20414;-73
2022/12/31 11:49:50;;;;;;;0.50;0.40;;;21.60;99.90;;;;;;4990907;28;20406;-73
2022/12/31 11:52:34;;;;;;;1.20;0.40;;;21.50;99.90;;;;;;4990771;28;20444;-72
2022/12/31 11:55:33;;;;;;;0.50;0.30;;;21.00;99.90;;;;;;4980185;28;20412;-77
2022/12/31 11:58:08;;;;;;;0.60;0.40;;;21.10;99.90;;;;;;4962932;28;20455;-77
2022/12/31 12:00:34;;;;;;;0.47;0.30;;;20.90;99.90;;;;;;4957029;28;20473;-77
2022/12/31 12:03:05;;;;;;;0.70;0.30;;;21.00;99.90;;;;;;4974929;28;20431;-78
2022/12/31 12:05:32;;;;;;;0.50;0.40;;;20.90;99.90;;;;;;4976031;28;20405;-78
2022/12/31 12:07:58;;;;;;;0.50;0.47;;;21.20;99.90;;;;;;4993755;28;20393;-78
2022/12/31 12:10:43;;;;;;;0.50;0.40;;;21.20;99.90;;;;;;4985318;28;20445;-77
2022/12/31 12:13:22;;;;;;;0.70;0.50;;;21.30;99.90;;;;;;4975327;28;20813;-79
2022/12/31 12:15:51;;;;;;;0.77;0.60;;;20.80;99.90;;;;;;4995271;28;20387;-78
2022/12/31 12:18:35;;;;;;;1.70;0.60;;;20.80;99.90;;;;;;4994610;28;20869;-78
2022/12/31 12:21:15;;;;;;;0.80;0.50;;;20.80;99.90;;;;;;4993869;28;20862;-78
2022/12/31 12:23:52;;;;;;;0.70;0.50;;;20.80;99.90;;;;;;4993469;28;20477;-77
2022/12/31 12:26:37;;;;;;;1.00;0.50;;;20.80;99.90;;;;;;4975633;28;20505;-78
2022/12/31 12:29:20;;;;;;;1.60;0.50;;;20.70;99.90;;;;;;4975425;28;20413;-78
2022/12/31 12:32:14;;;;;;;3.85;0.80;;;20.50;99.90;;;;;;4984584;28;20418;-77
2022/12/31 12:34:40;;;;;;;0.50;0.40;;;20.40;99.90;;;;;;4991425;28;20378;-77
2022/12/31 12:37:35;;;;;;;0.73;0.63;;;20.40;99.90;;;;;;4992251;28;20387;-77
2022/12/31 12:40:01;;;;;;;0.90;0.80;;;20.20;99.90;;;;;;4970730;28;20415;-77
2022/12/31 12:42:28;;;;;;;1.30;0.70;;;20.10;99.90;;;;;;4991644;28;20394;-79
2022/12/31 12:45:06;;;;;;;1.40;0.90;;;20.00;99.90;;;;;;4985090;28;20459;-77
2022/12/31 12:47:33;;;;;;;2.03;1.00;;;20.00;99.90;;;;;;4955189;28;20402;-77
2022/12/31 12:49:59;;;;;;;2.60;1.20;;;20.00;99.90;;;;;;4974015;28;20459;-77
2022/12/31 12:52:44;;;;;;;1.20;1.10;;;19.90;99.90;;;;;;4989662;28;20430;-78
2022/12/31 12:55:19;;;;;;;1.40;1.00;;;19.90;99.90;;;;;;4983286;28;20510;-77
2022/12/31 12:58:13;;;;;;;1.10;0.90;;;19.90;99.90;;;;;;4970027;28;20412;-78
2022/12/31 13:00:57;;;;;;;1.77;0.93;;;19.70;99.90;;;;;;4983419;28;20435;-79
2022/12/31 13:03:56;;;;;;;1.10;0.90;;;19.50;99.90;;;;;;4993544;28;20394;-78
2022/12/31 13:06:51;;;;;;;1.27;0.82;;;19.60;99.90;;;;;;4994025;28;20397;-77
2022/12/31 13:09:33;;;;;;;0.90;0.80;;;19.50;1.00;;;;;;4981843;28;20427;-77
2022/12/31 13:12:26;;;;;;;1.17;0.90;;;19.40;1.00;;;;;;4974602;28;20412;-78
2022/12/31 13:15:07;;;;;;;1.20;0.70;;;19.20;1.00;;;;;;5012846;23;20441;-72
2022/12/31 13:18:01;;;;;;;0.88;0.70;;;19.30;1.00;;;;;;4993652;28;20386;-73
2022/12/31 13:20:55;;;;;;;2.17;0.90;;;19.20;1.00;;;;;;4991520;28;20394;-73
2022/12/31 13:23:29;;;;;;;1.13;1.00;;;19.10;1.00;;;;;;4992856;28;20949;-73
2022/12/31 13:26:15;;;;;;;1.25;0.90;;;19.00;1.00;;;;;;4993462;28;20485;-73
2022/12/31 13:28:43;;;;;;;1.48;1.10;;;19.00;1.00;;;;;;4993288;28;20390;-73
2022/12/31 13:31:14;;;;;;;1.52;0.82;;;18.90;1.00;;;;;;4993142;28;20505;-73
2022/12/31 13:33:48;;;;;;;1.40;1.13;;;18.90;1.00;;;;;;4974899;28;20399;-74
2022/12/31 13:36:18;;;;;;;1.65;1.13;;;18.80;1.00;;;;;;4994400;28;20387;-74
2022/12/31 13:38:50;;;;;;;1.20;1.00;;;18.90;1.00;;;;;;4993174;28;20393;-73
2022/12/31 13:41:22;;;;;;;1.25;1.10;;;18.90;1.00;;;;;;4975797;28;20395;-73